sensor_id;sensor_type;location;lat;lon;timestamp;P1;durP1;ratioP1;P2;durP2;ratioP2
74213;SDS011;62576;55.694;37.494;2024-02-23T00:00:08;36.53;;;13.73;;
74213;SDS011;62576;55.694;37.494;2024-02-23T00:02:39;29.83;;;9.93;;
74213;SDS011;62576;55.694;37.494;2024-02-23T00:05:10;31.52;;;11.32;;
74213;SDS011;62576;55.694;37.494;2024-02-23T00:07:41;39.65;;;13.55;;
74213;SDS011;62576;55.694;37.494;2024-02-23T00:10:11;38.55;;;13.15;;
74213;SDS011;62576;55.694;37.494;2024-02-23T00:12:41;35.92;;;13.52;;
74213;SDS011;62576;55.694;37.494;2024-02-23T00:15:11;34.03;;;11.77;;
74213;SDS011;62576;55.694;37.494;2024-02-23T00:17:41;32.28;;;11.57;;
74213;SDS011;62576;55.694;37.494;2024-02-23T00:20:12;37.58;;;13.27;;
74213;SDS011;62576;55.694;37.494;2024-02-23T00:22:44;42.50;;;13.77;;
74213;SDS011;62576;55.694;37.494;2024-02-23T00:25:15;35.22;;;12.43;;
74213;SDS011;62576;55.694;37.494;2024-02-23T00:27:45;36.28;;;12.65;;
74213;SDS011;62576;55.694;37.494;2024-02-23T00:30:15;39.50;;;14.13;;
74213;SDS011;62576;55.694;37.494;2024-02-23T00:32:45;36.30;;;12.40;;
74213;SDS011;62576;55.694;37.494;2024-02-23T00:35:15;40.53;;;14.25;;
74213;SDS011;62576;55.694;37.494;2024-02-23T00:37:47;41.45;;;14.32;;
74213;SDS011;62576;55.694;37.494;2024-02-23T00:40:17;38.25;;;12.32;;
74213;SDS011;62576;55.694;37.494;2024-02-23T00:42:47;37.25;;;13.18;;
74213;SDS011;62576;55.694;37.494;2024-02-23T00:45:17;40.97;;;14.88;;
74213;SDS011;62576;55.694;37.494;2024-02-23T00:47:47;33.88;;;12.45;;
74213;SDS011;62576;55.694;37.494;2024-02-23T00:50:17;36.38;;;12.90;;
74213;SDS011;62576;55.694;37.494;2024-02-23T00:52:44;36.78;;;12.32;;
74213;SDS011;62576;55.694;37.494;2024-02-23T00:55:16;39.28;;;13.18;;
74213;SDS011;62576;55.694;37.494;2024-02-23T00:57:46;40.92;;;13.20;;
74213;SDS011;62576;55.694;37.494;2024-02-23T01:00:16;37.83;;;13.23;;
74213;SDS011;62576;55.694;37.494;2024-02-23T01:02:46;38.45;;;13.48;;
74213;SDS011;62576;55.694;37.494;2024-02-23T01:05:17;37.30;;;12.07;;
74213;SDS011;62576;55.694;37.494;2024-02-23T01:07:48;39.95;;;13.45;;
74213;SDS011;62576;55.694;37.494;2024-02-23T01:10:18;31.00;;;11.50;;
74213;SDS011;62576;55.694;37.494;2024-02-23T01:12:48;40.30;;;13.15;;
74213;SDS011;62576;55.694;37.494;2024-02-23T01:15:18;37.22;;;12.80;;
74213;SDS011;62576;55.694;37.494;2024-02-23T01:17:48;38.97;;;12.50;;
74213;SDS011;62576;55.694;37.494;2024-02-23T01:20:18;33.28;;;10.85;;
74213;SDS011;62576;55.694;37.494;2024-02-23T01:22:50;37.53;;;12.98;;
74213;SDS011;62576;55.694;37.494;2024-02-23T01:25:20;30.88;;;10.30;;
74213;SDS011;62576;55.694;37.494;2024-02-23T01:27:50;33.00;;;11.25;;
74213;SDS011;62576;55.694;37.494;2024-02-23T01:30:20;33.47;;;11.32;;
74213;SDS011;62576;55.694;37.494;2024-02-23T01:32:50;36.28;;;12.10;;
74213;SDS011;62576;55.694;37.494;2024-02-23T01:35:17;38.80;;;12.30;;
74213;SDS011;62576;55.694;37.494;2024-02-23T01:37:47;40.03;;;13.02;;
74213;SDS011;62576;55.694;37.494;2024-02-23T01:40:19;39.72;;;13.02;;
74213;SDS011;62576;55.694;37.494;2024-02-23T01:42:49;38.42;;;12.80;;
74213;SDS011;62576;55.694;37.494;2024-02-23T01:45:29;33.03;;;11.60;;
74213;SDS011;62576;55.694;37.494;2024-02-23T01:48:00;31.08;;;10.73;;
74213;SDS011;62576;55.694;37.494;2024-02-23T01:50:30;32.00;;;11.27;;
74213;SDS011;62576;55.694;37.494;2024-02-23T01:53:02;30.35;;;11.10;;
74213;SDS011;62576;55.694;37.494;2024-02-23T01:55:34;39.15;;;13.02;;
74213;SDS011;62576;55.694;37.494;2024-02-23T01:58:04;34.20;;;11.95;;
74213;SDS011;62576;55.694;37.494;2024-02-23T02:00:34;40.17;;;12.07;;
74213;SDS011;62576;55.694;37.494;2024-02-23T02:03:04;34.55;;;10.93;;
74213;SDS011;62576;55.694;37.494;2024-02-23T02:05:35;35.67;;;12.50;;
74213;SDS011;62576;55.694;37.494;2024-02-23T02:08:06;35.70;;;12.07;;
74213;SDS011;62576;55.694;37.494;2024-02-23T02:10:38;38.95;;;13.38;;
74213;SDS011;62576;55.694;37.494;2024-02-23T02:13:08;37.90;;;13.32;;
74213;SDS011;62576;55.694;37.494;2024-02-23T02:15:38;33.40;;;11.60;;
74213;SDS011;62576;55.694;37.494;2024-02-23T02:18:09;33.63;;;12.43;;
74213;SDS011;62576;55.694;37.494;2024-02-23T02:20:39;37.80;;;13.35;;
74213;SDS011;62576;55.694;37.494;2024-02-23T02:23:20;34.08;;;11.65;;
74213;SDS011;62576;55.694;37.494;2024-02-23T02:25:53;33.78;;;11.80;;
74213;SDS011;62576;55.694;37.494;2024-02-23T02:30:54;34.92;;;12.02;;
74213;SDS011;62576;55.694;37.494;2024-02-23T02:33:24;38.58;;;12.82;;
74213;SDS011;62576;55.694;37.494;2024-02-23T02:35:55;39.03;;;12.75;;
74213;SDS011;62576;55.694;37.494;2024-02-23T02:38:25;35.97;;;12.80;;
74213;SDS011;62576;55.694;37.494;2024-02-23T02:40:56;39.83;;;13.40;;
74213;SDS011;62576;55.694;37.494;2024-02-23T02:43:28;39.60;;;12.70;;
74213;SDS011;62576;55.694;37.494;2024-02-23T02:45:59;42.08;;;13.75;;
74213;SDS011;62576;55.694;37.494;2024-02-23T02:48:29;36.22;;;12.20;;
74213;SDS011;62576;55.694;37.494;2024-02-23T02:50:59;41.03;;;13.07;;
74213;SDS011;62576;55.694;37.494;2024-02-23T02:53:29;42.50;;;13.15;;
74213;SDS011;62576;55.694;37.494;2024-02-23T02:56:00;38.40;;;12.23;;
74213;SDS011;62576;55.694;37.494;2024-02-23T02:58:30;39.63;;;13.75;;
74213;SDS011;62576;55.694;37.494;2024-02-23T03:01:00;35.55;;;12.02;;
74213;SDS011;62576;55.694;37.494;2024-02-23T03:03:30;39.10;;;12.30;;
74213;SDS011;62576;55.694;37.494;2024-02-23T03:06:00;38.55;;;13.25;;
74213;SDS011;62576;55.694;37.494;2024-02-23T03:08:30;35.63;;;12.15;;
74213;SDS011;62576;55.694;37.494;2024-02-23T03:11:02;39.53;;;12.80;;
74213;SDS011;62576;55.694;37.494;2024-02-23T03:13:32;39.28;;;13.30;;
74213;SDS011;62576;55.694;37.494;2024-02-23T03:16:02;38.95;;;13.32;;
74213;SDS011;62576;55.694;37.494;2024-02-23T03:18:32;40.20;;;12.90;;
74213;SDS011;62576;55.694;37.494;2024-02-23T03:21:02;40.80;;;13.35;;
74213;SDS011;62576;55.694;37.494;2024-02-23T03:23:33;44.25;;;13.90;;
74213;SDS011;62576;55.694;37.494;2024-02-23T03:26:06;41.40;;;12.30;;
74213;SDS011;62576;55.694;37.494;2024-02-23T03:28:36;37.40;;;11.88;;
74213;SDS011;62576;55.694;37.494;2024-02-23T03:31:07;39.85;;;12.98;;
74213;SDS011;62576;55.694;37.494;2024-02-23T03:33:37;39.20;;;13.30;;
74213;SDS011;62576;55.694;37.494;2024-02-23T03:36:07;37.30;;;11.77;;
74213;SDS011;62576;55.694;37.494;2024-02-23T03:38:34;38.55;;;12.93;;
74213;SDS011;62576;55.694;37.494;2024-02-23T03:41:05;40.85;;;12.65;;
74213;SDS011;62576;55.694;37.494;2024-02-23T03:43:35;39.80;;;12.63;;
74213;SDS011;62576;55.694;37.494;2024-02-23T03:46:06;40.97;;;13.32;;
74213;SDS011;62576;55.694;37.494;2024-02-23T03:48:33;39.85;;;12.77;;
74213;SDS011;62576;55.694;37.494;2024-02-23T03:51:05;43.83;;;13.90;;
74213;SDS011;62576;55.694;37.494;2024-02-23T03:53:35;38.88;;;11.93;;
74213;SDS011;62576;55.694;37.494;2024-02-23T03:56:07;40.75;;;12.65;;
74213;SDS011;62576;55.694;37.494;2024-02-23T03:58:37;41.60;;;11.82;;
74213;SDS011;62576;55.694;37.494;2024-02-23T04:01:08;40.33;;;12.20;;
74213;SDS011;62576;55.694;37.494;2024-02-23T04:03:38;42.88;;;12.88;;
74213;SDS011;62576;55.694;37.494;2024-02-23T04:06:08;41.38;;;11.82;;
74213;SDS011;62576;55.694;37.494;2024-02-23T04:08:38;45.95;;;14.30;;
74213;SDS011;62576;55.694;37.494;2024-02-23T04:11:13;42.33;;;13.23;;
74213;SDS011;62576;55.694;37.494;2024-02-23T04:13:43;38.03;;;11.52;;
74213;SDS011;62576;55.694;37.494;2024-02-23T04:16:14;37.60;;;12.30;;
74213;SDS011;62576;55.694;37.494;2024-02-23T04:18:44;39.55;;;11.68;;
74213;SDS011;62576;55.694;37.494;2024-02-23T04:21:14;39.30;;;11.52;;
74213;SDS011;62576;55.694;37.494;2024-02-23T04:23:44;43.25;;;12.82;;
74213;SDS011;62576;55.694;37.494;2024-02-23T04:26:16;43.63;;;12.75;;
74213;SDS011;62576;55.694;37.494;2024-02-23T04:28:46;44.17;;;13.02;;
74213;SDS011;62576;55.694;37.494;2024-02-23T04:31:17;44.90;;;12.80;;
74213;SDS011;62576;55.694;37.494;2024-02-23T04:33:47;40.45;;;12.07;;
74213;SDS011;62576;55.694;37.494;2024-02-23T04:36:18;42.97;;;11.80;;
74213;SDS011;62576;55.694;37.494;2024-02-23T04:38:49;32.28;;;9.55;;
74213;SDS011;62576;55.694;37.494;2024-02-23T04:41:21;40.60;;;11.88;;
74213;SDS011;62576;55.694;37.494;2024-02-23T04:43:51;39.75;;;12.65;;
74213;SDS011;62576;55.694;37.494;2024-02-23T04:46:26;43.83;;;12.63;;
74213;SDS011;62576;55.694;37.494;2024-02-23T04:48:57;43.17;;;12.65;;
74213;SDS011;62576;55.694;37.494;2024-02-23T04:51:27;38.45;;;11.75;;
74213;SDS011;62576;55.694;37.494;2024-02-23T04:53:57;41.47;;;12.63;;
74213;SDS011;62576;55.694;37.494;2024-02-23T04:56:28;38.08;;;11.48;;
74213;SDS011;62576;55.694;37.494;2024-02-23T04:58:58;43.25;;;11.88;;
74213;SDS011;62576;55.694;37.494;2024-02-23T05:01:29;40.20;;;11.50;;
74213;SDS011;62576;55.694;37.494;2024-02-23T05:04:04;42.38;;;12.80;;
74213;SDS011;62576;55.694;37.494;2024-02-23T05:06:34;34.20;;;10.43;;
74213;SDS011;62576;55.694;37.494;2024-02-23T05:09:04;39.80;;;12.23;;
74213;SDS011;62576;55.694;37.494;2024-02-23T05:11:38;38.47;;;11.98;;
74213;SDS011;62576;55.694;37.494;2024-02-23T05:14:08;38.05;;;9.55;;
74213;SDS011;62576;55.694;37.494;2024-02-23T05:16:38;40.03;;;11.02;;
74213;SDS011;62576;55.694;37.494;2024-02-23T05:19:08;44.67;;;12.38;;
74213;SDS011;62576;55.694;37.494;2024-02-23T05:21:38;47.42;;;12.07;;
74213;SDS011;62576;55.694;37.494;2024-02-23T05:24:10;42.00;;;11.52;;
74213;SDS011;62576;55.694;37.494;2024-02-23T05:26:42;41.83;;;12.50;;
74213;SDS011;62576;55.694;37.494;2024-02-23T05:29:13;45.95;;;12.40;;
74213;SDS011;62576;55.694;37.494;2024-02-23T05:31:46;38.15;;;12.60;;
74213;SDS011;62576;55.694;37.494;2024-02-23T05:34:18;38.42;;;11.63;;
74213;SDS011;62576;55.694;37.494;2024-02-23T05:36:49;42.55;;;12.20;;
74213;SDS011;62576;55.694;37.494;2024-02-23T05:39:19;34.22;;;10.48;;
74213;SDS011;62576;55.694;37.494;2024-02-23T05:41:48;42.33;;;12.00;;
74213;SDS011;62576;55.694;37.494;2024-02-23T05:44:15;34.78;;;11.15;;
74213;SDS011;62576;55.694;37.494;2024-02-23T05:46:45;42.05;;;12.18;;
74213;SDS011;62576;55.694;37.494;2024-02-23T05:49:16;39.28;;;12.65;;
74213;SDS011;62576;55.694;37.494;2024-02-23T05:51:46;41.63;;;11.93;;
74213;SDS011;62576;55.694;37.494;2024-02-23T05:54:16;42.60;;;12.63;;
74213;SDS011;62576;55.694;37.494;2024-02-23T05:56:48;39.40;;;12.23;;
74213;SDS011;62576;55.694;37.494;2024-02-23T05:59:18;39.35;;;12.43;;
74213;SDS011;62576;55.694;37.494;2024-02-23T06:01:48;41.63;;;11.88;;
74213;SDS011;62576;55.694;37.494;2024-02-23T06:04:20;43.20;;;12.50;;
74213;SDS011;62576;55.694;37.494;2024-02-23T06:06:50;37.55;;;11.93;;
74213;SDS011;62576;55.694;37.494;2024-02-23T06:09:20;41.00;;;12.95;;
74213;SDS011;62576;55.694;37.494;2024-02-23T06:11:52;42.00;;;12.07;;
74213;SDS011;62576;55.694;37.494;2024-02-23T06:14:40;40.72;;;12.90;;
74213;SDS011;62576;55.694;37.494;2024-02-23T06:17:10;42.47;;;12.32;;
74213;SDS011;62576;55.694;37.494;2024-02-23T06:19:41;39.03;;;12.55;;
74213;SDS011;62576;55.694;37.494;2024-02-23T06:22:11;43.85;;;12.63;;
74213;SDS011;62576;55.694;37.494;2024-02-23T06:24:43;39.13;;;12.18;;
74213;SDS011;62576;55.694;37.494;2024-02-23T06:27:15;43.22;;;12.75;;
74213;SDS011;62576;55.694;37.494;2024-02-23T06:29:45;40.15;;;12.68;;
74213;SDS011;62576;55.694;37.494;2024-02-23T06:32:15;40.22;;;12.60;;
74213;SDS011;62576;55.694;37.494;2024-02-23T06:34:46;40.75;;;12.82;;
74213;SDS011;62576;55.694;37.494;2024-02-23T06:37:16;31.02;;;9.70;;
74213;SDS011;62576;55.694;37.494;2024-02-23T06:39:46;39.40;;;12.48;;
74213;SDS011;62576;55.694;37.494;2024-02-23T06:42:24;41.67;;;13.20;;
74213;SDS011;62576;55.694;37.494;2024-02-23T06:44:54;38.63;;;11.93;;
74213;SDS011;62576;55.694;37.494;2024-02-23T06:47:25;42.80;;;12.35;;
74213;SDS011;62576;55.694;37.494;2024-02-23T06:49:55;40.60;;;13.05;;
74213;SDS011;62576;55.694;37.494;2024-02-23T06:52:22;37.30;;;13.38;;
74213;SDS011;62576;55.694;37.494;2024-02-23T06:54:54;40.08;;;12.57;;
74213;SDS011;62576;55.694;37.494;2024-02-23T06:57:25;39.88;;;13.15;;
74213;SDS011;62576;55.694;37.494;2024-02-23T06:59:55;37.65;;;13.07;;
74213;SDS011;62576;55.694;37.494;2024-02-23T07:02:25;38.08;;;12.50;;
74213;SDS011;62576;55.694;37.494;2024-02-23T07:04:55;41.45;;;12.55;;
74213;SDS011;62576;55.694;37.494;2024-02-23T07:07:26;35.05;;;12.30;;
74213;SDS011;62576;55.694;37.494;2024-02-23T07:09:57;42.53;;;12.77;;
74213;SDS011;62576;55.694;37.494;2024-02-23T07:12:28;39.05;;;12.23;;
74213;SDS011;62576;55.694;37.494;2024-02-23T07:14:58;39.25;;;11.98;;
74213;SDS011;62576;55.694;37.494;2024-02-23T07:17:29;43.47;;;13.48;;
74213;SDS011;62576;55.694;37.494;2024-02-23T07:19:59;36.95;;;10.50;;
74213;SDS011;62576;55.694;37.494;2024-02-23T07:22:33;35.50;;;11.52;;
74213;SDS011;62576;55.694;37.494;2024-02-23T07:25:04;40.08;;;12.32;;
74213;SDS011;62576;55.694;37.494;2024-02-23T07:27:36;34.30;;;12.43;;
74213;SDS011;62576;55.694;37.494;2024-02-23T07:30:06;46.22;;;13.52;;
74213;SDS011;62576;55.694;37.494;2024-02-23T07:32:37;34.78;;;11.63;;
74213;SDS011;62576;55.694;37.494;2024-02-23T07:35:08;37.45;;;12.05;;
74213;SDS011;62576;55.694;37.494;2024-02-23T07:37:39;39.00;;;12.15;;
74213;SDS011;62576;55.694;37.494;2024-02-23T07:40:09;35.13;;;11.48;;
74213;SDS011;62576;55.694;37.494;2024-02-23T07:42:42;27.38;;;9.98;;
74213;SDS011;62576;55.694;37.494;2024-02-23T07:45:11;40.75;;;11.52;;
74213;SDS011;62576;55.694;37.494;2024-02-23T07:47:41;39.90;;;12.32;;
74213;SDS011;62576;55.694;37.494;2024-02-23T07:50:12;35.33;;;10.98;;
74213;SDS011;62576;55.694;37.494;2024-02-23T07:52:41;34.72;;;11.93;;
74213;SDS011;62576;55.694;37.494;2024-02-23T07:55:11;37.15;;;11.73;;
74213;SDS011;62576;55.694;37.494;2024-02-23T07:57:43;39.75;;;13.40;;
74213;SDS011;62576;55.694;37.494;2024-02-23T08:00:13;40.10;;;12.52;;
74213;SDS011;62576;55.694;37.494;2024-02-23T08:02:44;37.30;;;11.98;;
74213;SDS011;62576;55.694;37.494;2024-02-23T08:05:14;42.78;;;13.20;;
74213;SDS011;62576;55.694;37.494;2024-02-23T08:07:41;38.22;;;11.82;;
74213;SDS011;62576;55.694;37.494;2024-02-23T08:10:11;34.92;;;10.73;;
74213;SDS011;62576;55.694;37.494;2024-02-23T08:12:43;37.50;;;11.63;;
74213;SDS011;62576;55.694;37.494;2024-02-23T08:15:13;33.67;;;11.70;;
74213;SDS011;62576;55.694;37.494;2024-02-23T08:17:41;39.50;;;11.48;;
74213;SDS011;62576;55.694;37.494;2024-02-23T08:20:11;38.25;;;12.52;;
74213;SDS011;62576;55.694;37.494;2024-02-23T08:22:42;36.75;;;12.02;;
74213;SDS011;62576;55.694;37.494;2024-02-23T08:25:12;41.35;;;13.30;;
74213;SDS011;62576;55.694;37.494;2024-02-23T08:27:43;33.92;;;10.80;;
74213;SDS011;62576;55.694;37.494;2024-02-23T08:30:14;36.38;;;12.10;;
74213;SDS011;62576;55.694;37.494;2024-02-23T08:32:44;38.75;;;12.20;;
74213;SDS011;62576;55.694;37.494;2024-02-23T08:35:14;29.73;;;9.45;;
74213;SDS011;62576;55.694;37.494;2024-02-23T08:37:44;31.45;;;10.95;;
74213;SDS011;62576;55.694;37.494;2024-02-23T08:40:15;38.80;;;11.75;;
74213;SDS011;62576;55.694;37.494;2024-02-23T08:42:46;36.95;;;11.70;;
74213;SDS011;62576;55.694;37.494;2024-02-23T08:45:18;36.23;;;11.63;;
74213;SDS011;62576;55.694;37.494;2024-02-23T08:47:48;33.65;;;11.43;;
74213;SDS011;62576;55.694;37.494;2024-02-23T08:50:18;42.88;;;13.60;;
74213;SDS011;62576;55.694;37.494;2024-02-23T08:52:45;38.13;;;12.63;;
74213;SDS011;62576;55.694;37.494;2024-02-23T08:55:15;35.80;;;11.82;;
74213;SDS011;62576;55.694;37.494;2024-02-23T08:57:47;31.67;;;11.73;;
74213;SDS011;62576;55.694;37.494;2024-02-23T09:00:18;32.13;;;11.30;;
74213;SDS011;62576;55.694;37.494;2024-02-23T09:02:48;38.35;;;11.38;;
74213;SDS011;62576;55.694;37.494;2024-02-23T09:05:19;36.17;;;12.40;;
74213;SDS011;62576;55.694;37.494;2024-02-23T09:07:50;32.97;;;11.48;;
74213;SDS011;62576;55.694;37.494;2024-02-23T09:10:21;32.30;;;10.95;;
74213;SDS011;62576;55.694;37.494;2024-02-23T09:12:52;33.47;;;10.27;;
74213;SDS011;62576;55.694;37.494;2024-02-23T09:15:22;33.88;;;11.13;;
74213;SDS011;62576;55.694;37.494;2024-02-23T09:17:53;28.02;;;9.68;;
74213;SDS011;62576;55.694;37.494;2024-02-23T09:20:22;30.48;;;10.65;;
74213;SDS011;62576;55.694;37.494;2024-02-23T09:22:53;33.83;;;11.27;;
74213;SDS011;62576;55.694;37.494;2024-02-23T09:25:23;36.97;;;11.20;;
74213;SDS011;62576;55.694;37.494;2024-02-23T09:27:57;35.30;;;11.18;;
74213;SDS011;62576;55.694;37.494;2024-02-23T09:30:28;32.35;;;11.48;;
74213;SDS011;62576;55.694;37.494;2024-02-23T09:32:58;29.58;;;10.68;;
74213;SDS011;62576;55.694;37.494;2024-02-23T09:35:28;30.23;;;10.50;;
74213;SDS011;62576;55.694;37.494;2024-02-23T09:37:59;31.63;;;11.15;;
74213;SDS011;62576;55.694;37.494;2024-02-23T09:40:29;31.70;;;11.48;;
74213;SDS011;62576;55.694;37.494;2024-02-23T09:42:58;35.10;;;10.85;;
74213;SDS011;62576;55.694;37.494;2024-02-23T09:45:28;25.85;;;9.73;;
74213;SDS011;62576;55.694;37.494;2024-02-23T09:47:59;32.58;;;10.73;;
74213;SDS011;62576;55.694;37.494;2024-02-23T09:50:32;30.52;;;10.90;;
74213;SDS011;62576;55.694;37.494;2024-02-23T09:53:03;33.88;;;10.85;;
74213;SDS011;62576;55.694;37.494;2024-02-23T09:55:36;34.97;;;11.60;;
74213;SDS011;62576;55.694;37.494;2024-02-23T09:58:08;36.22;;;11.50;;
74213;SDS011;62576;55.694;37.494;2024-02-23T10:00:40;33.03;;;11.52;;
74213;SDS011;62576;55.694;37.494;2024-02-23T10:03:10;40.22;;;12.07;;
74213;SDS011;62576;55.694;37.494;2024-02-23T10:05:40;38.35;;;10.93;;
74213;SDS011;62576;55.694;37.494;2024-02-23T10:08:12;32.47;;;11.23;;
74213;SDS011;62576;55.694;37.494;2024-02-23T10:10:42;35.80;;;11.88;;
74213;SDS011;62576;55.694;37.494;2024-02-23T10:13:35;37.50;;;12.02;;
74213;SDS011;62576;55.694;37.494;2024-02-23T10:16:05;33.55;;;11.68;;
74213;SDS011;62576;55.694;37.494;2024-02-23T10:18:37;32.42;;;11.88;;
74213;SDS011;62576;55.694;37.494;2024-02-23T10:21:08;30.60;;;9.52;;
74213;SDS011;62576;55.694;37.494;2024-02-23T10:23:37;32.85;;;11.48;;
74213;SDS011;62576;55.694;37.494;2024-02-23T10:26:08;33.40;;;11.68;;
74213;SDS011;62576;55.694;37.494;2024-02-23T10:28:40;32.80;;;11.05;;
74213;SDS011;62576;55.694;37.494;2024-02-23T10:31:10;36.30;;;11.40;;
74213;SDS011;62576;55.694;37.494;2024-02-23T10:33:40;35.95;;;11.65;;
74213;SDS011;62576;55.694;37.494;2024-02-23T10:36:12;37.50;;;12.05;;
74213;SDS011;62576;55.694;37.494;2024-02-23T10:38:47;40.55;;;12.38;;
74213;SDS011;62576;55.694;37.494;2024-02-23T10:43:52;30.70;;;10.40;;
74213;SDS011;62576;55.694;37.494;2024-02-23T10:46:27;32.55;;;10.75;;
74213;SDS011;62576;55.694;37.494;2024-02-23T10:48:57;36.00;;;11.38;;
74213;SDS011;62576;55.694;37.494;2024-02-23T10:51:28;31.27;;;10.55;;
74213;SDS011;62576;55.694;37.494;2024-02-23T10:53:59;37.75;;;11.43;;
74213;SDS011;62576;55.694;37.494;2024-02-23T10:56:30;35.28;;;11.43;;
74213;SDS011;62576;55.694;37.494;2024-02-23T10:59:02;37.92;;;12.27;;
74213;SDS011;62576;55.694;37.494;2024-02-23T11:01:33;39.78;;;12.70;;
74213;SDS011;62576;55.694;37.494;2024-02-23T11:04:05;38.45;;;11.65;;
74213;SDS011;62576;55.694;37.494;2024-02-23T11:06:36;35.60;;;11.40;;
74213;SDS011;62576;55.694;37.494;2024-02-23T11:09:07;37.58;;;11.35;;
74213;SDS011;62576;55.694;37.494;2024-02-23T11:11:37;33.03;;;11.93;;
74213;SDS011;62576;55.694;37.494;2024-02-23T11:14:09;34.45;;;12.00;;
74213;SDS011;62576;55.694;37.494;2024-02-23T11:16:39;36.15;;;12.13;;
74213;SDS011;62576;55.694;37.494;2024-02-23T11:19:10;40.25;;;11.77;;
74213;SDS011;62576;55.694;37.494;2024-02-23T11:21:40;33.10;;;10.52;;
74213;SDS011;62576;55.694;37.494;2024-02-23T11:24:15;36.45;;;12.20;;
74213;SDS011;62576;55.694;37.494;2024-02-23T11:26:45;38.90;;;12.18;;
74213;SDS011;62576;55.694;37.494;2024-02-23T11:29:19;39.33;;;11.55;;
74213;SDS011;62576;55.694;37.494;2024-02-23T11:31:50;36.42;;;11.35;;
74213;SDS011;62576;55.694;37.494;2024-02-23T11:34:26;31.92;;;11.40;;
74213;SDS011;62576;55.694;37.494;2024-02-23T11:36:56;34.28;;;11.70;;
74213;SDS011;62576;55.694;37.494;2024-02-23T11:39:27;38.22;;;12.15;;
74213;SDS011;62576;55.694;37.494;2024-02-23T11:41:59;40.38;;;11.77;;
74213;SDS011;62576;55.694;37.494;2024-02-23T11:44:33;37.97;;;11.38;;
74213;SDS011;62576;55.694;37.494;2024-02-23T11:47:03;40.40;;;12.40;;
74213;SDS011;62576;55.694;37.494;2024-02-23T11:49:33;37.45;;;11.23;;
74213;SDS011;62576;55.694;37.494;2024-02-23T11:52:00;39.92;;;12.25;;
74213;SDS011;62576;55.694;37.494;2024-02-23T11:54:34;41.78;;;12.32;;
74213;SDS011;62576;55.694;37.494;2024-02-23T11:57:04;42.05;;;12.75;;
74213;SDS011;62576;55.694;37.494;2024-02-23T11:59:36;36.75;;;11.95;;
74213;SDS011;62576;55.694;37.494;2024-02-23T12:02:06;41.97;;;12.63;;
74213;SDS011;62576;55.694;37.494;2024-02-23T12:04:36;33.25;;;10.07;;
74213;SDS011;62576;55.694;37.494;2024-02-23T12:07:07;43.08;;;11.90;;
74213;SDS011;62576;55.694;37.494;2024-02-23T12:09:37;41.03;;;11.20;;
74213;SDS011;62576;55.694;37.494;2024-02-23T12:12:09;37.85;;;12.38;;
74213;SDS011;62576;55.694;37.494;2024-02-23T12:14:43;38.43;;;12.60;;
74213;SDS011;62576;55.694;37.494;2024-02-23T12:17:14;36.45;;;12.20;;
74213;SDS011;62576;55.694;37.494;2024-02-23T12:19:44;38.17;;;10.65;;
74213;SDS011;62576;55.694;37.494;2024-02-23T12:22:14;37.83;;;11.20;;
74213;SDS011;62576;55.694;37.494;2024-02-23T12:24:44;40.20;;;12.00;;
74213;SDS011;62576;55.694;37.494;2024-02-23T12:27:16;38.95;;;11.63;;
74213;SDS011;62576;55.694;37.494;2024-02-23T12:29:52;45.38;;;12.98;;
74213;SDS011;62576;55.694;37.494;2024-02-23T12:32:22;41.13;;;13.05;;
74213;SDS011;62576;55.694;37.494;2024-02-23T12:34:52;39.58;;;12.43;;
74213;SDS011;62576;55.694;37.494;2024-02-23T12:37:22;33.53;;;10.85;;
74213;SDS011;62576;55.694;37.494;2024-02-23T12:39:52;46.17;;;12.82;;
74213;SDS011;62576;55.694;37.494;2024-02-23T12:42:23;47.50;;;14.05;;
74213;SDS011;62576;55.694;37.494;2024-02-23T12:44:54;40.88;;;12.98;;
74213;SDS011;62576;55.694;37.494;2024-02-23T12:47:24;45.05;;;12.77;;
74213;SDS011;62576;55.694;37.494;2024-02-23T12:49:57;42.78;;;14.10;;
74213;SDS011;62576;55.694;37.494;2024-02-23T12:52:25;45.22;;;14.23;;
74213;SDS011;62576;55.694;37.494;2024-02-23T12:54:56;43.20;;;12.40;;
74213;SDS011;62576;55.694;37.494;2024-02-23T12:57:29;47.88;;;14.15;;
74213;SDS011;62576;55.694;37.494;2024-02-23T13:00:01;46.28;;;13.60;;
74213;SDS011;62576;55.694;37.494;2024-02-23T13:02:31;47.35;;;12.63;;
74213;SDS011;62576;55.694;37.494;2024-02-23T13:05:01;48.65;;;12.80;;
74213;SDS011;62576;55.694;37.494;2024-02-23T13:07:32;44.58;;;13.38;;
74213;SDS011;62576;55.694;37.494;2024-02-23T13:10:02;47.25;;;13.82;;
74213;SDS011;62576;55.694;37.494;2024-02-23T13:12:35;45.30;;;14.02;;
74213;SDS011;62576;55.694;37.494;2024-02-23T13:15:07;42.10;;;12.10;;
74213;SDS011;62576;55.694;37.494;2024-02-23T13:17:38;38.90;;;11.07;;
74213;SDS011;62576;55.694;37.494;2024-02-23T13:20:08;49.92;;;13.70;;
74213;SDS011;62576;55.694;37.494;2024-02-23T13:22:41;50.55;;;13.55;;
74213;SDS011;62576;55.694;37.494;2024-02-23T13:25:10;45.80;;;13.35;;
74213;SDS011;62576;55.694;37.494;2024-02-23T13:27:41;47.67;;;14.07;;
74213;SDS011;62576;55.694;37.494;2024-02-23T13:30:13;48.47;;;13.85;;
74213;SDS011;62576;55.694;37.494;2024-02-23T13:32:44;41.55;;;11.85;;
74213;SDS011;62576;55.694;37.494;2024-02-23T13:35:14;45.75;;;13.88;;
74213;SDS011;62576;55.694;37.494;2024-02-23T13:37:44;50.10;;;14.15;;
74213;SDS011;62576;55.694;37.494;2024-02-23T13:40:15;54.30;;;15.43;;
74213;SDS011;62576;55.694;37.494;2024-02-23T13:42:45;49.00;;;14.70;;
74213;SDS011;62576;55.694;37.494;2024-02-23T13:45:19;53.40;;;14.90;;
74213;SDS011;62576;55.694;37.494;2024-02-23T13:50:40;52.17;;;14.63;;
74213;SDS011;62576;55.694;37.494;2024-02-23T13:53:10;45.65;;;13.35;;
74213;SDS011;62576;55.694;37.494;2024-02-23T13:55:40;49.75;;;14.50;;
74213;SDS011;62576;55.694;37.494;2024-02-23T13:58:12;51.00;;;15.25;;
74213;SDS011;62576;55.694;37.494;2024-02-23T14:00:44;50.38;;;14.48;;
74213;SDS011;62576;55.694;37.494;2024-02-23T14:03:15;41.75;;;11.82;;
74213;SDS011;62576;55.694;37.494;2024-02-23T14:05:46;47.78;;;15.25;;
74213;SDS011;62576;55.694;37.494;2024-02-23T14:08:35;45.05;;;12.32;;
74213;SDS011;62576;55.694;37.494;2024-02-23T14:11:06;51.60;;;15.32;;
74213;SDS011;62576;55.694;37.494;2024-02-23T14:13:36;52.45;;;15.43;;
74213;SDS011;62576;55.694;37.494;2024-02-23T14:16:08;53.28;;;16.05;;
74213;SDS011;62576;55.694;37.494;2024-02-23T14:18:38;48.97;;;12.75;;
74213;SDS011;62576;55.694;37.494;2024-02-23T14:21:27;57.55;;;14.90;;
74213;SDS011;62576;55.694;37.494;2024-02-23T14:23:57;52.40;;;15.23;;
74213;SDS011;62576;55.694;37.494;2024-02-23T14:26:28;56.78;;;16.00;;
74213;SDS011;62576;55.694;37.494;2024-02-23T14:28:58;55.92;;;15.68;;
74213;SDS011;62576;55.694;37.494;2024-02-23T14:31:30;53.53;;;16.00;;
74213;SDS011;62576;55.694;37.494;2024-02-23T14:34:00;56.72;;;15.55;;
74213;SDS011;62576;55.694;37.494;2024-02-23T14:36:30;58.80;;;16.42;;